Alexander, Kansas
Current Conditions -  °F | °C
As of 12:15 PM on Thursday 29 Jan 2015 (Local Time) from KHYS Reporting Station
Clear Clear  
Wind Chill: 36°   Ceiling: Unl
Heat Index: 45°   Visibility: 10mi
Dew Point: 23°   Wind: 22mph
Humidity: 43%   Direction: 350°N
Pressure: 30.5"   Gusts: 25mph
Location:  38.47°N, 99.55°W
Report Text: KHYS 291815Z AUTO 35019G22KT 10SM CLR 07/M05 A3050 RMK AO1
Loading
Personal Weather Stations






























Interactive Weather Map New forecast layout! Learn more

10-Day Weather Forecast

Advertisements
Track Severe Weather on mobile